sensor_id;sensor_type;location;lat;lon;timestamp;pressure;altitude;pressure_sealevel;temperature
11321;BMP180;5715;48.234;14.320;2023-07-09T00:01:55;98941.00;;;25.80
11321;BMP180;5715;48.234;14.320;2023-07-09T00:04:46;98935.00;;;25.60
11321;BMP180;5715;48.234;14.320;2023-07-09T00:07:34;98938.00;;;25.60
11321;BMP180;5715;48.234;14.320;2023-07-09T00:10:21;98936.00;;;25.50
11321;BMP180;5715;48.234;14.320;2023-07-09T00:13:11;98941.00;;;25.40
11321;BMP180;5715;48.234;14.320;2023-07-09T00:16:01;98941.00;;;25.40
11321;BMP180;5715;48.234;14.320;2023-07-09T00:18:51;98941.00;;;25.30
11321;BMP180;5715;48.234;14.320;2023-07-09T00:21:39;98940.00;;;25.10
11321;BMP180;5715;48.234;14.320;2023-07-09T00:24:28;98933.00;;;25.40
11321;BMP180;5715;48.234;14.320;2023-07-09T00:27:21;98937.00;;;25.50
11321;BMP180;5715;48.234;14.320;2023-07-09T00:30:17;98939.00;;;25.40
11321;BMP180;5715;48.234;14.320;2023-07-09T00:33:04;98934.00;;;25.40
11321;BMP180;5715;48.234;14.320;2023-07-09T00:35:52;98943.00;;;25.30
11321;BMP180;5715;48.234;14.320;2023-07-09T00:38:40;98945.00;;;25.30
11321;BMP180;5715;48.234;14.320;2023-07-09T00:41:29;98947.00;;;25.20
11321;BMP180;5715;48.234;14.320;2023-07-09T00:44:30;98948.00;;;25.20
11321;BMP180;5715;48.234;14.320;2023-07-09T00:47:31;98948.00;;;25.20
11321;BMP180;5715;48.234;14.320;2023-07-09T00:51:07;98947.00;;;25.00
11321;BMP180;5715;48.234;14.320;2023-07-09T00:54:05;98950.00;;;25.00
11321;BMP180;5715;48.234;14.320;2023-07-09T00:56:58;98946.00;;;25.00
11321;BMP180;5715;48.234;14.320;2023-07-09T00:59:56;98952.00;;;24.90
11321;BMP180;5715;48.234;14.320;2023-07-09T01:02:47;98950.00;;;25.00
11321;BMP180;5715;48.234;14.320;2023-07-09T01:05:38;98946.00;;;24.80
11321;BMP180;5715;48.234;14.320;2023-07-09T01:08:29;98954.00;;;24.80
11321;BMP180;5715;48.234;14.320;2023-07-09T01:11:22;98958.00;;;24.80
11321;BMP180;5715;48.234;14.320;2023-07-09T01:14:15;98960.00;;;24.80
11321;BMP180;5715;48.234;14.320;2023-07-09T01:17:12;98952.00;;;24.90
11321;BMP180;5715;48.234;14.320;2023-07-09T01:19:59;98958.00;;;24.90
11321;BMP180;5715;48.234;14.320;2023-07-09T01:22:52;98965.00;;;24.90
11321;BMP180;5715;48.234;14.320;2023-07-09T01:25:49;98963.00;;;25.00
11321;BMP180;5715;48.234;14.320;2023-07-09T01:28:40;98964.00;;;25.00
11321;BMP180;5715;48.234;14.320;2023-07-09T01:31:30;98971.00;;;25.10
11321;BMP180;5715;48.234;14.320;2023-07-09T01:34:19;98977.00;;;25.20
11321;BMP180;5715;48.234;14.320;2023-07-09T01:37:09;98979.00;;;25.00
11321;BMP180;5715;48.234;14.320;2023-07-09T01:39:56;98981.00;;;25.00
11321;BMP180;5715;48.234;14.320;2023-07-09T01:42:44;98983.00;;;25.10
11321;BMP180;5715;48.234;14.320;2023-07-09T01:45:34;98982.00;;;25.00
11321;BMP180;5715;48.234;14.320;2023-07-09T01:48:23;98979.00;;;25.00
11321;BMP180;5715;48.234;14.320;2023-07-09T01:51:16;98985.00;;;25.10
11321;BMP180;5715;48.234;14.320;2023-07-09T01:54:04;98980.00;;;25.00
11321;BMP180;5715;48.234;14.320;2023-07-09T01:56:52;98980.00;;;25.10
11321;BMP180;5715;48.234;14.320;2023-07-09T01:59:54;98983.00;;;25.00
11321;BMP180;5715;48.234;14.320;2023-07-09T02:02:45;98987.00;;;25.00
11321;BMP180;5715;48.234;14.320;2023-07-09T02:05:35;98979.00;;;25.00
11321;BMP180;5715;48.234;14.320;2023-07-09T02:08:23;98990.00;;;25.10
11321;BMP180;5715;48.234;14.320;2023-07-09T02:11:11;98995.00;;;25.10
11321;BMP180;5715;48.234;14.320;2023-07-09T02:13:58;98997.00;;;25.10
11321;BMP180;5715;48.234;14.320;2023-07-09T02:16:46;98994.00;;;25.20
11321;BMP180;5715;48.234;14.320;2023-07-09T02:19:34;98995.00;;;25.30
11321;BMP180;5715;48.234;14.320;2023-07-09T02:22:21;99000.00;;;25.50
11321;BMP180;5715;48.234;14.320;2023-07-09T02:25:09;98987.00;;;25.40
11321;BMP180;5715;48.234;14.320;2023-07-09T02:27:57;98992.00;;;25.60
11321;BMP180;5715;48.234;14.320;2023-07-09T02:30:45;98990.00;;;25.60
11321;BMP180;5715;48.234;14.320;2023-07-09T02:33:33;98995.00;;;25.80
11321;BMP180;5715;48.234;14.320;2023-07-09T02:36:21;99004.00;;;25.70
11321;BMP180;5715;48.234;14.320;2023-07-09T02:39:13;99004.00;;;25.70
11321;BMP180;5715;48.234;14.320;2023-07-09T02:42:01;99006.00;;;25.70
11321;BMP180;5715;48.234;14.320;2023-07-09T02:44:49;99006.00;;;25.80
11321;BMP180;5715;48.234;14.320;2023-07-09T02:47:37;99006.00;;;25.60
11321;BMP180;5715;48.234;14.320;2023-07-09T02:50:24;99017.00;;;25.50
11321;BMP180;5715;48.234;14.320;2023-07-09T02:53:12;99014.00;;;25.50
11321;BMP180;5715;48.234;14.320;2023-07-09T02:56:00;99013.00;;;25.40
11321;BMP180;5715;48.234;14.320;2023-07-09T02:58:49;99013.00;;;25.40
11321;BMP180;5715;48.234;14.320;2023-07-09T03:01:37;99005.00;;;25.40
11321;BMP180;5715;48.234;14.320;2023-07-09T03:04:24;99007.00;;;25.50
11321;BMP180;5715;48.234;14.320;2023-07-09T03:07:12;99011.00;;;25.40
11321;BMP180;5715;48.234;14.320;2023-07-09T03:09:59;99014.00;;;25.30
11321;BMP180;5715;48.234;14.320;2023-07-09T03:12:47;99016.00;;;25.30
11321;BMP180;5715;48.234;14.320;2023-07-09T03:15:35;99012.00;;;25.30
11321;BMP180;5715;48.234;14.320;2023-07-09T03:18:23;99024.00;;;25.20
11321;BMP180;5715;48.234;14.320;2023-07-09T03:21:11;99036.00;;;25.00
11321;BMP180;5715;48.234;14.320;2023-07-09T03:23:59;99030.00;;;25.00
11321;BMP180;5715;48.234;14.320;2023-07-09T03:26:47;99032.00;;;25.00
11321;BMP180;5715;48.234;14.320;2023-07-09T03:29:35;99026.00;;;25.00
11321;BMP180;5715;48.234;14.320;2023-07-09T03:32:23;99029.00;;;24.90
11321;BMP180;5715;48.234;14.320;2023-07-09T03:35:10;99033.00;;;25.00
11321;BMP180;5715;48.234;14.320;2023-07-09T03:37:58;99034.00;;;25.30
11321;BMP180;5715;48.234;14.320;2023-07-09T03:40:45;99034.00;;;25.40
11321;BMP180;5715;48.234;14.320;2023-07-09T03:43:33;99031.00;;;25.80
11321;BMP180;5715;48.234;14.320;2023-07-09T03:46:21;99036.00;;;25.90
11321;BMP180;5715;48.234;14.320;2023-07-09T03:49:08;99037.00;;;25.90
11321;BMP180;5715;48.234;14.320;2023-07-09T03:51:56;99035.00;;;26.10
11321;BMP180;5715;48.234;14.320;2023-07-09T03:54:43;99031.00;;;26.10
11321;BMP180;5715;48.234;14.320;2023-07-09T03:57:32;99034.00;;;26.00
11321;BMP180;5715;48.234;14.320;2023-07-09T04:00:21;99034.00;;;26.00
11321;BMP180;5715;48.234;14.320;2023-07-09T04:03:08;99036.00;;;26.00
11321;BMP180;5715;48.234;14.320;2023-07-09T04:05:56;99033.00;;;26.10
11321;BMP180;5715;48.234;14.320;2023-07-09T04:08:44;99030.00;;;25.80
11321;BMP180;5715;48.234;14.320;2023-07-09T04:11:31;99037.00;;;26.10
11321;BMP180;5715;48.234;14.320;2023-07-09T04:14:19;99032.00;;;25.90
11321;BMP180;5715;48.234;14.320;2023-07-09T04:17:06;99033.00;;;25.80
11321;BMP180;5715;48.234;14.320;2023-07-09T04:19:54;99048.00;;;25.90
11321;BMP180;5715;48.234;14.320;2023-07-09T04:22:41;99041.00;;;26.00
11321;BMP180;5715;48.234;14.320;2023-07-09T04:25:29;99049.00;;;26.30
11321;BMP180;5715;48.234;14.320;2023-07-09T04:28:16;99050.00;;;26.60
11321;BMP180;5715;48.234;14.320;2023-07-09T04:31:04;99050.00;;;27.30
11321;BMP180;5715;48.234;14.320;2023-07-09T04:33:52;99048.00;;;28.20
11321;BMP180;5715;48.234;14.320;2023-07-09T04:36:43;99055.00;;;29.30
11321;BMP180;5715;48.234;14.320;2023-07-09T04:39:30;99056.00;;;30.20
11321;BMP180;5715;48.234;14.320;2023-07-09T04:42:19;99058.00;;;31.10
11321;BMP180;5715;48.234;14.320;2023-07-09T04:45:10;99063.00;;;31.70
11321;BMP180;5715;48.234;14.320;2023-07-09T04:47:58;99066.00;;;32.20
11321;BMP180;5715;48.234;14.320;2023-07-09T04:50:46;99066.00;;;32.70
11321;BMP180;5715;48.234;14.320;2023-07-09T04:53:37;99077.00;;;33.20
11321;BMP180;5715;48.234;14.320;2023-07-09T04:56:25;99062.00;;;33.30
11321;BMP180;5715;48.234;14.320;2023-07-09T04:59:12;99069.00;;;33.80
11321;BMP180;5715;48.234;14.320;2023-07-09T05:02:00;99071.00;;;34.10
11321;BMP180;5715;48.234;14.320;2023-07-09T05:04:48;99077.00;;;34.50
11321;BMP180;5715;48.234;14.320;2023-07-09T05:07:35;99081.00;;;34.60
11321;BMP180;5715;48.234;14.320;2023-07-09T05:10:23;99076.00;;;35.30
11321;BMP180;5715;48.234;14.320;2023-07-09T05:13:12;99081.00;;;35.80
11321;BMP180;5715;48.234;14.320;2023-07-09T05:16:00;99081.00;;;36.30
11321;BMP180;5715;48.234;14.320;2023-07-09T05:18:48;99086.00;;;36.70
11321;BMP180;5715;48.234;14.320;2023-07-09T05:21:35;99086.00;;;36.90
11321;BMP180;5715;48.234;14.320;2023-07-09T05:24:23;99095.00;;;37.60
11321;BMP180;5715;48.234;14.320;2023-07-09T05:27:14;99096.00;;;38.00
11321;BMP180;5715;48.234;14.320;2023-07-09T05:30:02;99104.00;;;38.30
11321;BMP180;5715;48.234;14.320;2023-07-09T05:32:49;99103.00;;;38.50
11321;BMP180;5715;48.234;14.320;2023-07-09T05:35:37;99100.00;;;37.80
11321;BMP180;5715;48.234;14.320;2023-07-09T05:38:24;99095.00;;;38.20
11321;BMP180;5715;48.234;14.320;2023-07-09T05:41:12;99104.00;;;38.10
11321;BMP180;5715;48.234;14.320;2023-07-09T05:44:01;99109.00;;;38.40
11321;BMP180;5715;48.234;14.320;2023-07-09T05:46:49;99110.00;;;38.80
11321;BMP180;5715;48.234;14.320;2023-07-09T05:49:38;99109.00;;;38.30
11321;BMP180;5715;48.234;14.320;2023-07-09T05:52:28;99103.00;;;38.00
11321;BMP180;5715;48.234;14.320;2023-07-09T05:55:17;99110.00;;;38.50
11321;BMP180;5715;48.234;14.320;2023-07-09T05:58:04;99114.00;;;38.90
11321;BMP180;5715;48.234;14.320;2023-07-09T06:00:53;99111.00;;;37.70
11321;BMP180;5715;48.234;14.320;2023-07-09T06:03:41;99112.00;;;38.10
11321;BMP180;5715;48.234;14.320;2023-07-09T06:06:30;99109.00;;;38.00
11321;BMP180;5715;48.234;14.320;2023-07-09T06:09:18;99111.00;;;38.20
11321;BMP180;5715;48.234;14.320;2023-07-09T06:12:07;99114.00;;;37.70
11321;BMP180;5715;48.234;14.320;2023-07-09T06:14:55;99111.00;;;37.30
11321;BMP180;5715;48.234;14.320;2023-07-09T06:17:42;99113.00;;;37.10
11321;BMP180;5715;48.234;14.320;2023-07-09T06:20:30;99112.00;;;37.00
11321;BMP180;5715;48.234;14.320;2023-07-09T06:23:19;99113.00;;;36.80
11321;BMP180;5715;48.234;14.320;2023-07-09T06:26:06;99117.00;;;35.60
11321;BMP180;5715;48.234;14.320;2023-07-09T06:28:54;99117.00;;;34.50
11321;BMP180;5715;48.234;14.320;2023-07-09T06:31:41;99117.00;;;34.20
11321;BMP180;5715;48.234;14.320;2023-07-09T06:34:30;99124.00;;;33.60
11321;BMP180;5715;48.234;14.320;2023-07-09T06:37:18;99124.00;;;33.20
11321;BMP180;5715;48.234;14.320;2023-07-09T06:40:06;99124.00;;;33.40
11321;BMP180;5715;48.234;14.320;2023-07-09T06:42:56;99114.00;;;33.40
11321;BMP180;5715;48.234;14.320;2023-07-09T06:45:56;99116.00;;;33.20
11321;BMP180;5715;48.234;14.320;2023-07-09T06:48:44;99115.00;;;32.70
11321;BMP180;5715;48.234;14.320;2023-07-09T06:51:32;99116.00;;;33.10
11321;BMP180;5715;48.234;14.320;2023-07-09T06:54:19;99114.00;;;33.10
11321;BMP180;5715;48.234;14.320;2023-07-09T06:57:07;99123.00;;;32.90
11321;BMP180;5715;48.234;14.320;2023-07-09T06:59:54;99120.00;;;33.10
11321;BMP180;5715;48.234;14.320;2023-07-09T07:02:42;99125.00;;;33.30
11321;BMP180;5715;48.234;14.320;2023-07-09T07:05:31;99119.00;;;33.30
11321;BMP180;5715;48.234;14.320;2023-07-09T07:08:20;99109.00;;;33.10
11321;BMP180;5715;48.234;14.320;2023-07-09T07:11:10;99110.00;;;33.40
11321;BMP180;5715;48.234;14.320;2023-07-09T07:13:57;99117.00;;;33.40
11321;BMP180;5715;48.234;14.320;2023-07-09T07:16:45;99110.00;;;33.60
11321;BMP180;5715;48.234;14.320;2023-07-09T07:19:33;99110.00;;;33.70
11321;BMP180;5715;48.234;14.320;2023-07-09T07:22:20;99113.00;;;33.60
11321;BMP180;5715;48.234;14.320;2023-07-09T07:25:08;99111.00;;;34.00
11321;BMP180;5715;48.234;14.320;2023-07-09T07:27:56;99104.00;;;34.20
11321;BMP180;5715;48.234;14.320;2023-07-09T07:30:44;99100.00;;;34.20
11321;BMP180;5715;48.234;14.320;2023-07-09T07:33:31;99098.00;;;34.10
11321;BMP180;5715;48.234;14.320;2023-07-09T07:36:19;99090.00;;;34.00
11321;BMP180;5715;48.234;14.320;2023-07-09T07:39:16;99104.00;;;34.10
11321;BMP180;5715;48.234;14.320;2023-07-09T07:42:04;99095.00;;;34.50
11321;BMP180;5715;48.234;14.320;2023-07-09T07:44:53;99103.00;;;34.90
11321;BMP180;5715;48.234;14.320;2023-07-09T07:47:41;99102.00;;;35.10
11321;BMP180;5715;48.234;14.320;2023-07-09T07:50:29;99099.00;;;35.40
11321;BMP180;5715;48.234;14.320;2023-07-09T07:53:17;99099.00;;;35.50
11321;BMP180;5715;48.234;14.320;2023-07-09T07:56:05;99104.00;;;35.70
11321;BMP180;5715;48.234;14.320;2023-07-09T07:58:53;99091.00;;;35.20
11321;BMP180;5715;48.234;14.320;2023-07-09T08:01:40;99093.00;;;35.10
11321;BMP180;5715;48.234;14.320;2023-07-09T08:04:28;99097.00;;;35.40
11321;BMP180;5715;48.234;14.320;2023-07-09T08:07:18;99095.00;;;34.80
11321;BMP180;5715;48.234;14.320;2023-07-09T08:10:06;99086.00;;;34.80
11321;BMP180;5715;48.234;14.320;2023-07-09T08:12:54;99090.00;;;35.10
11321;BMP180;5715;48.234;14.320;2023-07-09T08:15:45;99091.00;;;35.40
11321;BMP180;5715;48.234;14.320;2023-07-09T08:18:34;99092.00;;;35.50
11321;BMP180;5715;48.234;14.320;2023-07-09T08:21:22;99090.00;;;35.50
11321;BMP180;5715;48.234;14.320;2023-07-09T08:24:09;99099.00;;;35.50
11321;BMP180;5715;48.234;14.320;2023-07-09T08:26:57;99089.00;;;35.60
11321;BMP180;5715;48.234;14.320;2023-07-09T08:29:47;99091.00;;;35.90
11321;BMP180;5715;48.234;14.320;2023-07-09T08:32:35;99082.00;;;35.70
11321;BMP180;5715;48.234;14.320;2023-07-09T08:35:23;99088.00;;;35.70
11321;BMP180;5715;48.234;14.320;2023-07-09T08:38:23;99091.00;;;35.50
11321;BMP180;5715;48.234;14.320;2023-07-09T08:44:52;99090.00;;;36.30
11321;BMP180;5715;48.234;14.320;2023-07-09T08:48:04;99087.00;;;36.20
11321;BMP180;5715;48.234;14.320;2023-07-09T08:51:04;99084.00;;;36.90
11321;BMP180;5715;48.234;14.320;2023-07-09T08:53:58;99080.00;;;37.20
11321;BMP180;5715;48.234;14.320;2023-07-09T08:56:46;99089.00;;;37.60
11321;BMP180;5715;48.234;14.320;2023-07-09T08:59:35;99076.00;;;37.90
11321;BMP180;5715;48.234;14.320;2023-07-09T09:02:46;99075.00;;;38.00
11321;BMP180;5715;48.234;14.320;2023-07-09T09:05:42;99079.00;;;38.30
11321;BMP180;5715;48.234;14.320;2023-07-09T09:11:49;99078.00;;;38.40
11321;BMP180;5715;48.234;14.320;2023-07-09T09:14:44;99078.00;;;38.40
11321;BMP180;5715;48.234;14.320;2023-07-09T09:17:38;99073.00;;;38.60
11321;BMP180;5715;48.234;14.320;2023-07-09T09:20:27;99079.00;;;39.00
11321;BMP180;5715;48.234;14.320;2023-07-09T09:23:15;99069.00;;;38.50
11321;BMP180;5715;48.234;14.320;2023-07-09T09:26:34;99077.00;;;38.60
11321;BMP180;5715;48.234;14.320;2023-07-09T09:29:25;99069.00;;;39.00
11321;BMP180;5715;48.234;14.320;2023-07-09T09:32:29;99071.00;;;38.80
11321;BMP180;5715;48.234;14.320;2023-07-09T09:35:19;99067.00;;;38.50
11321;BMP180;5715;48.234;14.320;2023-07-09T09:38:22;99068.00;;;38.90
11321;BMP180;5715;48.234;14.320;2023-07-09T09:41:20;99064.00;;;38.10
11321;BMP180;5715;48.234;14.320;2023-07-09T09:44:26;99066.00;;;38.60
11321;BMP180;5715;48.234;14.320;2023-07-09T09:47:15;99058.00;;;39.40
11321;BMP180;5715;48.234;14.320;2023-07-09T09:50:04;99058.00;;;39.50
11321;BMP180;5715;48.234;14.320;2023-07-09T09:52:52;99064.00;;;39.50
11321;BMP180;5715;48.234;14.320;2023-07-09T09:55:39;99065.00;;;39.30
11321;BMP180;5715;48.234;14.320;2023-07-09T09:58:30;99074.00;;;40.20
11321;BMP180;5715;48.234;14.320;2023-07-09T10:01:18;99067.00;;;40.00
11321;BMP180;5715;48.234;14.320;2023-07-09T10:04:10;99067.00;;;40.60
11321;BMP180;5715;48.234;14.320;2023-07-09T10:07:07;99068.00;;;39.60
11321;BMP180;5715;48.234;14.320;2023-07-09T10:09:56;99066.00;;;40.10
11321;BMP180;5715;48.234;14.320;2023-07-09T10:13:02;99065.00;;;40.70
11321;BMP180;5715;48.234;14.320;2023-07-09T10:16:22;99063.00;;;41.30
11321;BMP180;5715;48.234;14.320;2023-07-09T10:20:03;99056.00;;;39.70
11321;BMP180;5715;48.234;14.320;2023-07-09T10:23:22;99057.00;;;40.50
11321;BMP180;5715;48.234;14.320;2023-07-09T10:30:19;99057.00;;;40.70
11321;BMP180;5715;48.234;14.320;2023-07-09T10:33:00;99055.00;;;40.60
11321;BMP180;5715;48.234;14.320;2023-07-09T10:36:03;99057.00;;;40.20
11321;BMP180;5715;48.234;14.320;2023-07-09T10:39:48;99055.00;;;40.90
11321;BMP180;5715;48.234;14.320;2023-07-09T10:42:50;99050.00;;;41.20
11321;BMP180;5715;48.234;14.320;2023-07-09T10:45:44;99031.00;;;41.70
11321;BMP180;5715;48.234;14.320;2023-07-09T10:48:41;99038.00;;;41.80
11321;BMP180;5715;48.234;14.320;2023-07-09T10:54:32;99035.00;;;40.90
11321;BMP180;5715;48.234;14.320;2023-07-09T10:57:46;99038.00;;;41.20
11321;BMP180;5715;48.234;14.320;2023-07-09T11:00:38;99041.00;;;40.80
11321;BMP180;5715;48.234;14.320;2023-07-09T11:03:37;99042.00;;;41.30
11321;BMP180;5715;48.234;14.320;2023-07-09T11:06:49;99027.00;;;41.80
11321;BMP180;5715;48.234;14.320;2023-07-09T11:09:43;99028.00;;;42.20
11321;BMP180;5715;48.234;14.320;2023-07-09T11:12:43;99032.00;;;41.80
11321;BMP180;5715;48.234;14.320;2023-07-09T11:15:44;99032.00;;;41.40
11321;BMP180;5715;48.234;14.320;2023-07-09T11:18:35;99024.00;;;41.30
11321;BMP180;5715;48.234;14.320;2023-07-09T11:21:23;99024.00;;;41.20
11321;BMP180;5715;48.234;14.320;2023-07-09T11:24:53;99024.00;;;41.20
11321;BMP180;5715;48.234;14.320;2023-07-09T11:28:02;99019.00;;;41.60
11321;BMP180;5715;48.234;14.320;2023-07-09T11:30:54;99018.00;;;41.80
11321;BMP180;5715;48.234;14.320;2023-07-09T11:34:08;99012.00;;;41.70
11321;BMP180;5715;48.234;14.320;2023-07-09T11:37:00;99011.00;;;41.40
11321;BMP180;5715;48.234;14.320;2023-07-09T11:39:48;99009.00;;;41.50
11321;BMP180;5715;48.234;14.320;2023-07-09T11:42:58;99006.00;;;41.40
11321;BMP180;5715;48.234;14.320;2023-07-09T11:45:47;99002.00;;;41.10
11321;BMP180;5715;48.234;14.320;2023-07-09T11:48:35;98993.00;;;42.00
11321;BMP180;5715;48.234;14.320;2023-07-09T11:51:50;99007.00;;;43.10
11321;BMP180;5715;48.234;14.320;2023-07-09T11:54:41;99002.00;;;42.70
11321;BMP180;5715;48.234;14.320;2023-07-09T11:57:29;99000.00;;;42.80
11321;BMP180;5715;48.234;14.320;2023-07-09T12:00:17;99002.00;;;42.90
11321;BMP180;5715;48.234;14.320;2023-07-09T12:03:09;98996.00;;;43.20
11321;BMP180;5715;48.234;14.320;2023-07-09T12:09:02;98990.00;;;43.50
11321;BMP180;5715;48.234;14.320;2023-07-09T12:11:51;98981.00;;;43.80
11321;BMP180;5715;48.234;14.320;2023-07-09T12:14:39;98984.00;;;43.90
11321;BMP180;5715;48.234;14.320;2023-07-09T12:17:27;98980.00;;;44.00
11321;BMP180;5715;48.234;14.320;2023-07-09T12:20:17;98973.00;;;43.80
11321;BMP180;5715;48.234;14.320;2023-07-09T12:23:27;98978.00;;;43.90
11321;BMP180;5715;48.234;14.320;2023-07-09T12:26:19;98971.00;;;42.50
11321;BMP180;5715;48.234;14.320;2023-07-09T12:29:10;98969.00;;;41.50
11321;BMP180;5715;48.234;14.320;2023-07-09T12:31:59;98961.00;;;41.50
11321;BMP180;5715;48.234;14.320;2023-07-09T12:34:55;98965.00;;;42.00
11321;BMP180;5715;48.234;14.320;2023-07-09T12:37:46;98956.00;;;42.20
11321;BMP180;5715;48.234;14.320;2023-07-09T12:40:34;98960.00;;;41.70
11321;BMP180;5715;48.234;14.320;2023-07-09T12:43:30;98959.00;;;42.00
11321;BMP180;5715;48.234;14.320;2023-07-09T12:46:20;98953.00;;;41.60
11321;BMP180;5715;48.234;14.320;2023-07-09T12:49:22;98940.00;;;41.20
11321;BMP180;5715;48.234;14.320;2023-07-09T12:52:22;98939.00;;;41.60
11321;BMP180;5715;48.234;14.320;2023-07-09T12:55:24;98934.00;;;42.40
11321;BMP180;5715;48.234;14.320;2023-07-09T12:58:29;98926.00;;;42.40
11321;BMP180;5715;48.234;14.320;2023-07-09T13:01:17;98925.00;;;42.50
11321;BMP180;5715;48.234;14.320;2023-07-09T13:04:05;98933.00;;;42.50
11321;BMP180;5715;48.234;14.320;2023-07-09T13:06:52;98935.00;;;42.30
11321;BMP180;5715;48.234;14.320;2023-07-09T13:09:54;98936.00;;;42.80
11321;BMP180;5715;48.234;14.320;2023-07-09T13:12:47;98927.00;;;42.70
11321;BMP180;5715;48.234;14.320;2023-07-09T13:15:54;98928.00;;;43.20
11321;BMP180;5715;48.234;14.320;2023-07-09T13:18:44;98920.00;;;43.80
11321;BMP180;5715;48.234;14.320;2023-07-09T13:21:31;98920.00;;;44.00
11321;BMP180;5715;48.234;14.320;2023-07-09T13:24:24;98926.00;;;43.20
11321;BMP180;5715;48.234;14.320;2023-07-09T13:27:14;98924.00;;;43.10
11321;BMP180;5715;48.234;14.320;2023-07-09T13:30:02;98928.00;;;43.10
11321;BMP180;5715;48.234;14.320;2023-07-09T13:32:50;98923.00;;;42.70
11321;BMP180;5715;48.234;14.320;2023-07-09T13:35:38;98924.00;;;42.90
11321;BMP180;5715;48.234;14.320;2023-07-09T13:38:26;98920.00;;;42.00
11321;BMP180;5715;48.234;14.320;2023-07-09T13:41:18;98921.00;;;41.70
11321;BMP180;5715;48.234;14.320;2023-07-09T13:44:32;98921.00;;;42.60
11321;BMP180;5715;48.234;14.320;2023-07-09T13:47:19;98924.00;;;42.60
11321;BMP180;5715;48.234;14.320;2023-07-09T13:50:08;98919.00;;;42.70
11321;BMP180;5715;48.234;14.320;2023-07-09T13:52:55;98923.00;;;42.30
11321;BMP180;5715;48.234;14.320;2023-07-09T13:55:44;98912.00;;;42.50
11321;BMP180;5715;48.234;14.320;2023-07-09T13:58:32;98912.00;;;40.70
11321;BMP180;5715;48.234;14.320;2023-07-09T14:01:24;98903.00;;;40.20
11321;BMP180;5715;48.234;14.320;2023-07-09T14:04:15;98911.00;;;41.00
11321;BMP180;5715;48.234;14.320;2023-07-09T14:07:04;98907.00;;;42.00
11321;BMP180;5715;48.234;14.320;2023-07-09T14:09:54;98909.00;;;43.00
11321;BMP180;5715;48.234;14.320;2023-07-09T14:12:44;98911.00;;;41.70
11321;BMP180;5715;48.234;14.320;2023-07-09T14:15:32;98904.00;;;42.50
11321;BMP180;5715;48.234;14.320;2023-07-09T14:18:22;98906.00;;;42.90
11321;BMP180;5715;48.234;14.320;2023-07-09T14:21:23;98904.00;;;42.60
11321;BMP180;5715;48.234;14.320;2023-07-09T14:24:27;98903.00;;;42.90
11321;BMP180;5715;48.234;14.320;2023-07-09T14:27:15;98899.00;;;43.00
11321;BMP180;5715;48.234;14.320;2023-07-09T14:30:03;98906.00;;;43.10
11321;BMP180;5715;48.234;14.320;2023-07-09T14:32:52;98904.00;;;43.40
11321;BMP180;5715;48.234;14.320;2023-07-09T14:35:40;98897.00;;;41.90
11321;BMP180;5715;48.234;14.320;2023-07-09T14:38:28;98887.00;;;41.60
11321;BMP180;5715;48.234;14.320;2023-07-09T14:41:22;98891.00;;;42.10
11321;BMP180;5715;48.234;14.320;2023-07-09T14:44:28;98894.00;;;42.00
11321;BMP180;5715;48.234;14.320;2023-07-09T14:47:19;98888.00;;;42.50
11321;BMP180;5715;48.234;14.320;2023-07-09T14:50:08;98888.00;;;42.10
11321;BMP180;5715;48.234;14.320;2023-07-09T14:52:56;98884.00;;;42.30
11321;BMP180;5715;48.234;14.320;2023-07-09T14:55:44;98897.00;;;42.30
11321;BMP180;5715;48.234;14.320;2023-07-09T14:58:32;98887.00;;;41.20
11321;BMP180;5715;48.234;14.320;2023-07-09T15:01:20;98889.00;;;42.30
11321;BMP180;5715;48.234;14.320;2023-07-09T15:04:30;98890.00;;;43.20
11321;BMP180;5715;48.234;14.320;2023-07-09T15:07:19;98890.00;;;43.80
11321;BMP180;5715;48.234;14.320;2023-07-09T15:10:12;98883.00;;;42.70
11321;BMP180;5715;48.234;14.320;2023-07-09T15:12:59;98892.00;;;43.00
11321;BMP180;5715;48.234;14.320;2023-07-09T15:15:47;98886.00;;;43.20
11321;BMP180;5715;48.234;14.320;2023-07-09T15:18:35;98878.00;;;43.70
11321;BMP180;5715;48.234;14.320;2023-07-09T15:21:24;98879.00;;;43.10
11321;BMP180;5715;48.234;14.320;2023-07-09T15:24:22;98872.00;;;43.70
11321;BMP180;5715;48.234;14.320;2023-07-09T15:27:12;98871.00;;;43.50
11321;BMP180;5715;48.234;14.320;2023-07-09T15:29:59;98866.00;;;43.70
11321;BMP180;5715;48.234;14.320;2023-07-09T15:32:48;98867.00;;;44.30
11321;BMP180;5715;48.234;14.320;2023-07-09T15:35:37;98863.00;;;44.00
11321;BMP180;5715;48.234;14.320;2023-07-09T15:38:31;98864.00;;;44.10
11321;BMP180;5715;48.234;14.320;2023-07-09T15:41:19;98861.00;;;43.90
11321;BMP180;5715;48.234;14.320;2023-07-09T15:44:18;98861.00;;;44.40
11321;BMP180;5715;48.234;14.320;2023-07-09T15:47:19;98859.00;;;44.80
11321;BMP180;5715;48.234;14.320;2023-07-09T15:50:18;98857.00;;;44.50
11321;BMP180;5715;48.234;14.320;2023-07-09T15:53:10;98849.00;;;42.00
11321;BMP180;5715;48.234;14.320;2023-07-09T15:56:05;98848.00;;;42.50
11321;BMP180;5715;48.234;14.320;2023-07-09T15:58:54;98851.00;;;42.60
11321;BMP180;5715;48.234;14.320;2023-07-09T16:01:42;98844.00;;;42.30
11321;BMP180;5715;48.234;14.320;2023-07-09T16:04:30;98843.00;;;42.80
11321;BMP180;5715;48.234;14.320;2023-07-09T16:07:18;98837.00;;;43.30
11321;BMP180;5715;48.234;14.320;2023-07-09T16:10:06;98841.00;;;43.50
11321;BMP180;5715;48.234;14.320;2023-07-09T16:12:54;98837.00;;;43.60
11321;BMP180;5715;48.234;14.320;2023-07-09T16:15:41;98832.00;;;43.80
11321;BMP180;5715;48.234;14.320;2023-07-09T16:18:29;98828.00;;;43.70
11321;BMP180;5715;48.234;14.320;2023-07-09T16:21:26;98826.00;;;44.30
11321;BMP180;5715;48.234;14.320;2023-07-09T16:24:24;98826.00;;;43.40
11321;BMP180;5715;48.234;14.320;2023-07-09T16:27:16;98828.00;;;43.30
11321;BMP180;5715;48.234;14.320;2023-07-09T16:33:00;98822.00;;;43.70
11321;BMP180;5715;48.234;14.320;2023-07-09T16:35:53;98819.00;;;42.00
11321;BMP180;5715;48.234;14.320;2023-07-09T16:38:41;98820.00;;;41.30
11321;BMP180;5715;48.234;14.320;2023-07-09T16:41:29;98816.00;;;41.70
11321;BMP180;5715;48.234;14.320;2023-07-09T16:44:17;98813.00;;;42.20
11321;BMP180;5715;48.234;14.320;2023-07-09T16:47:19;98815.00;;;42.20
11321;BMP180;5715;48.234;14.320;2023-07-09T16:50:21;98805.00;;;42.90